createdAt,value
2022-11-02T00:00:03.687Z,85.47
2022-11-02T00:03:03.474Z,85.44
2022-11-02T00:05:36.009Z,85.09
2022-11-02T00:08:06.532Z,84.95
2022-11-02T00:10:38.656Z,85.15
2022-11-02T00:13:09.178Z,85.32
2022-11-02T00:15:41.336Z,85.32
2022-11-02T00:18:15.397Z,85.32
2022-11-02T00:20:47.911Z,85.57
2022-11-02T00:23:21.379Z,85.70
2022-11-02T00:25:57.323Z,85.65
2022-11-02T00:28:30.259Z,85.74
2022-11-02T00:31:02.351Z,85.81
2022-11-02T00:33:34.981Z,85.85
2022-11-02T00:36:07.538Z,86.07
2022-11-02T00:38:39.726Z,86.05
2022-11-02T00:41:12.924Z,86.05
2022-11-02T00:43:45.139Z,86.04
2022-11-02T00:46:17.701Z,86.27
2022-11-02T00:48:49.835Z,86.37
2022-11-02T00:51:22.558Z,86.42
2022-11-02T00:53:55.587Z,86.61
2022-11-02T00:56:27.855Z,86.64
2022-11-02T00:59:00.735Z,86.77
2022-11-02T01:01:32.909Z,87.00
2022-11-02T01:04:05.506Z,87.00
2022-11-02T01:06:38.757Z,87.29
2022-11-02T01:09:11.169Z,87.45
2022-11-02T01:11:43.953Z,87.46
2022-11-02T01:14:16.058Z,87.62
2022-11-02T01:16:49.802Z,87.45
2022-11-02T01:19:23.881Z,87.60
2022-11-02T01:21:54.304Z,87.67
2022-11-02T01:24:26.439Z,87.88
2022-11-02T01:26:58.579Z,87.86
2022-11-02T01:29:29.218Z,88.08
2022-11-02T01:32:01.310Z,87.92
2022-11-02T01:34:31.766Z,87.98
2022-11-02T01:37:03.874Z,87.92
2022-11-02T01:39:34.564Z,87.88
2022-11-02T01:42:17.273Z,87.74
2022-11-02T01:44:50.322Z,87.68
2022-11-02T01:47:26.881Z,87.75
2022-11-02T01:50:05.764Z,87.61
2022-11-02T01:52:39.773Z,87.52
2022-11-02T01:55:17.180Z,87.53
2022-11-02T01:57:54.930Z,87.54
2022-11-02T02:00:27.501Z,87.58
2022-11-02T02:03:07.436Z,87.69
2022-11-02T02:05:44.887Z,87.70
2022-11-02T02:08:20.503Z,87.73
2022-11-02T02:10:52.849Z,87.58
2022-11-02T02:13:26.782Z,87.01
2022-11-02T02:16:09.650Z,87.32
2022-11-02T02:18:48.520Z,87.33
2022-11-02T02:21:32.052Z,87.18
2022-11-02T02:24:27.207Z,87.40
2022-11-02T02:27:13.568Z,87.63
2022-11-02T02:30:07.007Z,87.72
2022-11-02T02:32:49.342Z,88.06
2022-11-02T02:35:25.308Z,88.23
2022-11-02T02:37:59.797Z,88.36
2022-11-02T02:40:35.906Z,88.44
2022-11-02T02:43:14.670Z,88.46
2022-11-02T02:45:52.409Z,88.49
2022-11-02T02:48:27.245Z,88.54
2022-11-02T02:51:09.376Z,88.49
2022-11-02T02:53:42.437Z,88.56
2022-11-02T02:56:17.769Z,88.77
2022-11-02T02:58:53.977Z,88.92
2022-11-02T03:01:27.656Z,88.95
2022-11-02T03:04:00.151Z,89.05
2022-11-02T03:06:35.752Z,89.08
2022-11-02T03:09:20.707Z,89.13
2022-11-02T03:12:02.992Z,89.44
2022-11-02T03:14:51.415Z,89.35
2022-11-02T03:17:32.470Z,89.22
2022-11-02T03:20:13.234Z,89.24
2022-11-02T03:22:53.288Z,89.24
2022-11-02T03:25:30.157Z,89.23
2022-11-02T03:28:11.380Z,89.27
2022-11-02T03:30:47.617Z,89.15
2022-11-02T03:33:25.220Z,88.97
2022-11-02T03:36:03.911Z,89.11
2022-11-02T03:38:43.466Z,88.82
2022-11-02T03:41:17.732Z,88.57
2022-11-02T03:43:55.011Z,88.75
2022-11-02T03:46:31.177Z,88.84
2022-11-02T03:49:08.433Z,88.49
2022-11-02T03:51:45.152Z,88.56
2022-11-02T03:54:23.257Z,88.75
2022-11-02T03:56:59.398Z,88.65
2022-11-02T03:59:34.629Z,88.25
2022-11-02T04:02:11.035Z,88.60
2022-11-02T04:04:52.923Z,89.19
2022-11-02T04:07:58.372Z,89.65
2022-11-02T04:10:32.763Z,89.73
2022-11-02T04:13:22.658Z,89.67
2022-11-02T04:15:55.702Z,89.56
2022-11-02T04:18:45.274Z,89.24
2022-11-02T04:21:17.609Z,89.17
2022-11-02T04:24:07.403Z,89.38
2022-11-02T04:26:39.920Z,89.24
2022-11-02T04:29:12.698Z,89.05
2022-11-02T04:31:45.219Z,88.57
2022-11-02T04:34:19.125Z,88.46
2022-11-02T04:36:51.530Z,88.55
2022-11-02T04:39:23.890Z,88.74
2022-11-02T04:41:56.360Z,88.64
2022-11-02T04:44:32.871Z,88.98
2022-11-02T04:47:08.021Z,89.34
2022-11-02T04:49:40.383Z,89.64
2022-11-02T04:52:15.793Z,89.96
2022-11-02T04:54:51.800Z,90.09
2022-11-02T04:57:24.025Z,89.97
2022-11-02T04:59:56.252Z,89.98
2022-11-02T05:02:28.482Z,89.90
2022-11-02T05:05:01.248Z,90.00
2022-11-02T05:07:33.398Z,90.10
2022-11-02T05:10:06.617Z,89.99
2022-11-02T05:12:39.853Z,89.81
2022-11-02T05:15:13.345Z,89.60
2022-11-02T05:17:49.077Z,89.77
2022-11-02T05:20:21.485Z,89.86
2022-11-02T05:22:53.542Z,89.49
2022-11-02T05:25:26.570Z,89.60
2022-11-02T05:28:00.449Z,89.85
2022-11-02T05:30:33.063Z,90.01
2022-11-02T05:33:05.748Z,89.95
2022-11-02T05:35:38.114Z,89.99
2022-11-02T05:38:10.606Z,90.22
2022-11-02T05:40:43.254Z,90.26
2022-11-02T05:43:16.718Z,90.05
2022-11-02T05:45:54.382Z,89.86
2022-11-02T05:48:28.333Z,89.30
2022-11-02T05:51:01.869Z,89.43
2022-11-02T05:53:38.317Z,89.64
2022-11-02T05:56:13.556Z,89.44
2022-11-02T05:58:45.647Z,89.52
2022-11-02T06:01:16.273Z,89.95
2022-11-02T06:03:53.137Z,89.98
2022-11-02T06:06:26.077Z,89.99
2022-11-02T06:09:02.849Z,90.06
2022-11-02T06:11:38.461Z,90.11
2022-11-02T06:14:10.797Z,89.87
2022-11-02T06:16:42.888Z,90.10
2022-11-02T06:21:50.410Z,90.59
2022-11-02T06:24:22.668Z,90.10
2022-11-02T06:26:55.519Z,89.34
2022-11-02T06:29:28.789Z,88.86
2022-11-02T06:32:01.115Z,87.87
2022-11-02T06:34:33.224Z,87.47
2022-11-02T06:37:03.787Z,87.02
2022-11-02T06:42:09.146Z,84.77
2022-11-02T06:44:41.242Z,84.38
2022-11-02T06:47:13.938Z,83.27
2022-11-02T06:49:46.086Z,82.19
2022-11-02T06:52:18.207Z,81.67
2022-11-02T06:54:50.249Z,80.90
2022-11-02T06:57:22.671Z,80.37
2022-11-02T06:59:55.215Z,79.76
2022-11-02T07:02:27.620Z,78.80
2022-11-02T07:05:00.128Z,77.55
2022-11-02T07:07:32.381Z,76.92
2022-11-02T07:10:04.911Z,76.77
2022-11-02T07:12:37.107Z,76.05
2022-11-02T07:15:10.857Z,75.43
2022-11-02T07:17:43.507Z,75.26
2022-11-02T07:20:15.931Z,74.56
2022-11-02T07:22:56.411Z,73.63
2022-11-02T07:25:31.160Z,72.80
2022-11-02T07:28:04.387Z,72.23
2022-11-02T07:30:37.271Z,71.79
2022-11-02T07:33:09.616Z,71.16
2022-11-02T07:35:42.543Z,70.32
2022-11-02T07:38:14.739Z,69.49
2022-11-02T07:40:49.778Z,69.17
2022-11-02T07:43:21.977Z,68.99
2022-11-02T07:46:06.151Z,68.31
2022-11-02T07:48:38.305Z,68.07
2022-11-02T07:51:11.390Z,67.80
2022-11-02T07:53:43.938Z,66.45
2022-11-02T07:56:16.024Z,66.36
2022-11-02T07:58:48.452Z,66.15
2022-11-02T08:01:20.581Z,66.48
2022-11-02T08:03:53.173Z,66.14
2022-11-02T08:06:25.238Z,65.87
2022-11-02T08:08:57.416Z,65.99
2022-11-02T08:11:49.285Z,65.94
2022-11-02T08:14:21.503Z,65.75
2022-11-02T08:16:55.308Z,65.36
2022-11-02T08:19:27.377Z,65.63
2022-11-02T08:21:59.854Z,65.55
2022-11-02T08:24:32.121Z,64.78
2022-11-02T08:27:04.523Z,64.62
2022-11-02T08:29:37.013Z,64.26
2022-11-02T08:32:09.250Z,63.49
2022-11-02T08:34:41.341Z,62.92
2022-11-02T08:37:13.790Z,62.39
2022-11-02T08:39:46.182Z,61.82
2022-11-02T08:42:18.429Z,61.47
2022-11-02T08:44:50.489Z,60.99
2022-11-02T08:47:23.541Z,60.72
2022-11-02T08:49:55.802Z,60.00
2022-11-02T08:52:28.063Z,59.38
2022-11-02T08:55:00.140Z,58.69
2022-11-02T08:57:32.762Z,58.43
2022-11-02T09:00:06.509Z,58.17
2022-11-02T09:02:38.753Z,57.60
2022-11-02T09:05:13.056Z,56.58
2022-11-02T09:07:45.224Z,56.12
2022-11-02T09:10:17.562Z,54.34
2022-11-02T09:12:49.607Z,53.44
2022-11-02T09:15:21.978Z,53.00
2022-11-02T09:17:54.111Z,52.06
2022-11-02T09:20:26.307Z,51.97
2022-11-02T09:22:58.477Z,51.72
2022-11-02T09:25:30.694Z,52.35
2022-11-02T09:28:02.674Z,52.18
2022-11-02T09:30:34.723Z,51.63
2022-11-02T09:33:08.368Z,52.58
2022-11-02T09:35:43.875Z,52.31
2022-11-02T09:38:18.463Z,52.55
2022-11-02T09:41:02.739Z,52.85
2022-11-02T09:43:44.453Z,53.17
2022-11-02T09:46:21.317Z,52.74
2022-11-02T09:48:57.711Z,52.76
2022-11-02T09:51:34.695Z,53.03
2022-11-02T09:54:17.774Z,53.35
2022-11-02T09:56:51.234Z,53.26
2022-11-02T09:59:26.235Z,53.14
2022-11-02T10:02:06.811Z,52.80
2022-11-02T10:05:06.526Z,53.12
2022-11-02T10:08:01.956Z,53.48
2022-11-02T10:10:39.327Z,53.56
2022-11-02T10:13:27.022Z,53.72
2022-11-02T10:16:03.048Z,53.90
2022-11-02T10:18:37.695Z,53.95
2022-11-02T10:21:13.704Z,54.39
2022-11-02T10:23:52.494Z,54.98
2022-11-02T10:26:28.836Z,55.27
2022-11-02T10:29:04.542Z,55.38
2022-11-02T10:31:37.242Z,55.43
2022-11-02T10:34:22.091Z,55.45
2022-11-02T10:37:07.038Z,56.14
2022-11-02T10:39:53.133Z,55.55
2022-11-02T10:42:44.768Z,55.92
2022-11-02T10:45:39.683Z,55.99
2022-11-02T10:48:19.419Z,56.88
2022-11-02T10:50:59.153Z,57.54
2022-11-02T10:53:42.067Z,57.86
2022-11-02T10:56:19.332Z,57.62
2022-11-02T10:59:01.416Z,57.08
2022-11-02T11:01:33.097Z,56.31
2022-11-02T11:04:07.007Z,56.59
2022-11-02T11:06:41.921Z,56.64
2022-11-02T11:09:21.053Z,56.48
2022-11-02T11:11:58.120Z,56.99
2022-11-02T11:20:36.610Z,58.29
2022-11-02T11:23:11.263Z,58.77
2022-11-02T11:25:44.433Z,59.10
2022-11-02T11:28:27.535Z,59.22
2022-11-02T11:31:09.884Z,59.68
2022-11-02T11:33:54.544Z,59.74
2022-11-02T11:36:30.720Z,60.26
2022-11-02T11:39:10.507Z,60.51
2022-11-02T11:41:43.298Z,60.58
2022-11-02T11:44:17.347Z,60.80
2022-11-02T11:46:51.810Z,60.88
2022-11-02T11:49:48.121Z,61.04
2022-11-02T11:52:29.885Z,61.44
2022-11-02T11:55:20.092Z,61.49
2022-11-02T11:58:07.835Z,61.80
2022-11-02T12:00:40.191Z,61.97
2022-11-02T12:03:14.612Z,61.73
2022-11-02T12:06:04.216Z,61.70
2022-11-02T12:08:49.026Z,61.65
2022-11-02T12:11:42.559Z,61.03
2022-11-02T12:14:29.627Z,60.91
2022-11-02T12:17:22.332Z,61.16
2022-11-02T12:20:19.840Z,61.20
2022-11-02T12:23:00.850Z,61.97
2022-11-02T12:25:50.841Z,62.39
2022-11-02T12:28:34.563Z,61.86
2022-11-02T12:31:20.379Z,61.93
2022-11-02T12:34:16.622Z,61.72
2022-11-02T12:37:34.178Z,60.91
2022-11-02T12:40:13.862Z,60.70
2022-11-02T12:42:57.812Z,60.36
2022-11-02T12:45:47.311Z,60.29
2022-11-02T12:48:26.904Z,59.89
2022-11-02T12:51:06.045Z,59.70
2022-11-02T12:53:48.546Z,59.44
2022-11-02T12:56:26.013Z,59.16
2022-11-02T12:58:59.844Z,59.51
2022-11-02T13:01:37.084Z,59.46
2022-11-02T13:04:18.393Z,59.25
2022-11-02T13:06:53.604Z,58.79
2022-11-02T13:09:31.480Z,58.06
2022-11-02T13:12:07.595Z,57.89
2022-11-02T13:14:43.965Z,58.10
2022-11-02T13:17:22.099Z,58.08
2022-11-02T13:19:57.711Z,58.49
2022-11-02T13:22:35.291Z,58.88
2022-11-02T13:25:16.209Z,59.20
2022-11-02T13:27:53.397Z,59.53
2022-11-02T13:30:25.412Z,59.48
2022-11-02T13:33:04.362Z,59.80
2022-11-02T13:35:41.035Z,60.02
2022-11-02T13:38:26.233Z,60.01
2022-11-02T13:41:11.660Z,59.64
2022-11-02T13:44:08.321Z,59.61
2022-11-02T13:46:59.078Z,59.77
2022-11-02T13:49:36.880Z,59.48
2022-11-02T13:52:15.537Z,59.21
2022-11-02T13:54:51.342Z,59.39
2022-11-02T13:57:36.071Z,59.63
2022-11-02T14:00:27.687Z,59.55
2022-11-02T14:03:07.117Z,59.42
2022-11-02T14:05:46.948Z,59.62
2022-11-02T14:08:28.234Z,59.28
2022-11-02T14:11:25.202Z,59.42
2022-11-02T14:14:25.539Z,59.54
2022-11-02T14:17:14.175Z,59.65
2022-11-02T14:19:55.758Z,59.40
2022-11-02T14:22:31.227Z,59.23
2022-11-02T14:25:19.034Z,59.42
2022-11-02T14:27:55.314Z,59.11
2022-11-02T14:30:45.641Z,59.33
2022-11-02T14:33:29.128Z,59.10
2022-11-02T14:36:06.451Z,59.13
2022-11-02T14:38:57.148Z,59.36
2022-11-02T14:42:05.566Z,59.36
2022-11-02T14:45:06.925Z,59.54
2022-11-02T14:47:40.833Z,59.66
2022-11-02T14:50:18.592Z,59.87
2022-11-02T14:53:03.636Z,60.11
2022-11-02T14:55:38.483Z,60.40
2022-11-02T14:58:18.740Z,60.71
2022-11-02T15:01:01.024Z,61.05
2022-11-02T15:03:37.248Z,61.29
2022-11-02T15:06:18.097Z,61.58
2022-11-02T15:08:56.514Z,61.87
2022-11-02T15:11:52.747Z,62.22
2022-11-02T15:14:56.505Z,62.55
2022-11-02T15:17:54.948Z,62.89
2022-11-02T15:20:32.478Z,63.35
2022-11-02T15:23:30.588Z,63.57
2022-11-02T15:26:08.004Z,63.92
2022-11-02T15:28:40.816Z,64.39
2022-11-02T15:31:25.893Z,64.61
2022-11-02T15:34:02.426Z,64.81
2022-11-02T15:36:37.689Z,64.97
2022-11-02T15:39:12.831Z,65.24
2022-11-02T15:41:53.156Z,65.57
2022-11-02T15:45:14.185Z,65.83
2022-11-02T15:48:04.760Z,66.06
2022-11-02T15:50:49.487Z,66.36
2022-11-02T15:53:36.866Z,66.38
2022-11-02T15:56:36.143Z,66.65
2022-11-02T15:59:46.844Z,67.04
2022-11-02T16:02:26.310Z,67.42
2022-11-02T16:05:01.423Z,67.70
2022-11-02T16:07:56.958Z,67.90
2022-11-02T16:10:29.504Z,68.23
2022-11-02T16:13:14.260Z,68.19
2022-11-02T16:15:48.905Z,68.47
2022-11-02T16:18:37.154Z,68.57
2022-11-02T16:21:12.222Z,68.79
2022-11-02T16:23:48.159Z,68.94
2022-11-02T16:26:23.147Z,69.23
2022-11-02T16:28:57.666Z,69.38
2022-11-02T16:31:32.189Z,69.81
2022-11-02T16:34:08.872Z,69.86
2022-11-02T16:36:41.469Z,69.97
2022-11-02T16:39:22.553Z,70.11
2022-11-02T16:42:04.063Z,70.05
2022-11-02T16:44:37.213Z,70.06
2022-11-02T16:47:29.147Z,70.04
2022-11-02T16:50:01.695Z,69.95
2022-11-02T16:52:36.589Z,69.95
2022-11-02T16:55:40.075Z,70.10
2022-11-02T16:58:20.074Z,69.96
2022-11-02T17:01:02.132Z,69.92
2022-11-02T17:03:33.939Z,69.82
2022-11-02T17:06:08.598Z,69.87
2022-11-02T17:08:44.186Z,69.78
2022-11-02T17:11:19.031Z,69.87
2022-11-02T17:13:54.725Z,69.75
2022-11-02T17:16:33.938Z,69.97
2022-11-02T17:19:07.422Z,69.96
2022-11-02T17:21:44.818Z,70.11
2022-11-02T17:24:35.396Z,70.27
2022-11-02T17:27:24.896Z,70.41
2022-11-02T17:29:57.335Z,70.43
2022-11-02T17:32:29.991Z,70.40
2022-11-02T17:35:02.837Z,70.41
2022-11-02T17:37:35.535Z,70.42
2022-11-02T17:40:12.843Z,70.55
2022-11-02T17:43:00.210Z,70.57
2022-11-02T17:45:34.489Z,70.78
2022-11-02T17:48:10.017Z,70.80
2022-11-02T17:50:43.182Z,70.85
2022-11-02T17:53:15.481Z,70.79
2022-11-02T17:55:47.755Z,70.87
2022-11-02T17:58:19.927Z,70.97
2022-11-02T18:00:54.097Z,71.04
2022-11-02T18:03:31.207Z,70.92
2022-11-02T18:06:03.849Z,70.85
2022-11-02T18:08:56.357Z,70.96
2022-11-02T18:11:27.151Z,70.76
2022-11-02T18:13:59.294Z,70.63
2022-11-02T18:16:32.181Z,70.63
2022-11-02T18:19:04.547Z,70.52
2022-11-02T18:21:36.738Z,70.83
2022-11-02T18:24:09.926Z,70.72
2022-11-02T18:26:44.298Z,70.75
2022-11-02T18:29:19.854Z,70.94
2022-11-02T18:31:52.207Z,70.97
2022-11-02T18:34:24.579Z,71.03
2022-11-02T18:36:56.805Z,71.09
2022-11-02T18:39:30.381Z,71.16
2022-11-02T18:42:02.450Z,71.45
2022-11-02T18:44:34.974Z,71.51
2022-11-02T18:47:07.102Z,71.48
2022-11-02T18:49:37.705Z,71.47
2022-11-02T18:52:09.812Z,71.55
2022-11-02T18:54:41.923Z,71.52
2022-11-02T18:57:14.275Z,72.05
2022-11-02T18:59:46.514Z,72.24
2022-11-02T19:02:18.962Z,72.31
2022-11-02T19:04:51.288Z,72.33
2022-11-02T19:07:40.749Z,72.39
2022-11-02T19:10:13.620Z,72.55
2022-11-02T19:12:45.807Z,72.65
2022-11-02T19:15:16.357Z,72.64
2022-11-02T19:17:49.219Z,72.64
2022-11-02T19:20:21.382Z,72.77
2022-11-02T19:22:57.515Z,72.68
2022-11-02T19:25:30.547Z,72.76
2022-11-02T19:28:08.170Z,72.65
2022-11-02T19:30:41.511Z,72.69
2022-11-02T19:33:14.912Z,72.73
2022-11-02T19:35:57.012Z,72.71
2022-11-02T19:38:27.711Z,72.56
2022-11-02T19:41:09.984Z,72.75
2022-11-02T19:43:43.988Z,72.77
2022-11-02T19:46:18.127Z,72.83
2022-11-02T19:48:51.136Z,72.91
2022-11-02T19:51:24.912Z,73.11
2022-11-02T19:53:59.391Z,73.20
2022-11-02T19:56:36.606Z,73.33
2022-11-02T19:59:09.616Z,73.49
2022-11-02T20:01:43.653Z,73.73
2022-11-02T20:04:17.225Z,73.86
2022-11-02T20:06:50.489Z,73.96
2022-11-02T20:09:22.833Z,73.81
2022-11-02T20:11:54.949Z,73.81
2022-11-02T20:14:25.387Z,73.95
2022-11-02T20:17:10.728Z,74.15
2022-11-02T20:19:49.837Z,74.35
2022-11-02T20:22:22.089Z,74.33
2022-11-02T20:24:54.125Z,74.49
2022-11-02T20:27:24.874Z,74.66
2022-11-02T20:29:57.289Z,74.72
2022-11-02T20:32:30.377Z,74.85
2022-11-02T20:35:03.097Z,74.83
2022-11-02T20:37:37.260Z,74.91
2022-11-02T20:40:11.529Z,75.00
2022-11-02T20:42:43.791Z,75.11
2022-11-02T20:45:16.783Z,75.46
2022-11-02T20:47:49.367Z,75.84
2022-11-02T20:50:26.039Z,76.00
2022-11-02T20:52:59.407Z,76.14
2022-11-02T20:55:34.241Z,76.41
2022-11-02T20:58:06.405Z,76.49
2022-11-02T21:00:38.828Z,76.51
2022-11-02T21:03:11.153Z,76.33
2022-11-02T21:05:41.921Z,76.13
2022-11-02T21:08:14.532Z,76.14
2022-11-02T21:10:55.317Z,76.58
2022-11-02T21:13:45.207Z,76.92
2022-11-02T21:16:17.231Z,77.29
2022-11-02T21:18:47.688Z,77.51
2022-11-02T21:21:22.008Z,77.72
2022-11-02T21:23:54.884Z,77.79
2022-11-02T21:26:27.316Z,78.12
2022-11-02T21:28:58.248Z,78.42
2022-11-02T21:31:30.604Z,78.48
2022-11-02T21:34:02.977Z,78.58
2022-11-02T21:36:35.252Z,78.75
2022-11-02T21:39:07.728Z,79.07
2022-11-02T21:41:39.990Z,79.12
2022-11-02T21:44:11.755Z,79.26
2022-11-02T21:46:43.709Z,79.27
2022-11-02T21:49:14.422Z,79.08
2022-11-02T21:51:46.559Z,79.18
2022-11-02T21:54:17.122Z,79.24
2022-11-02T21:56:50.467Z,79.47
2022-11-02T21:59:22.518Z,79.67
2022-11-02T22:01:54.879Z,79.62
2022-11-02T22:04:31.149Z,79.50
2022-11-02T22:07:04.761Z,79.29
2022-11-02T22:09:36.808Z,79.25
2022-11-02T22:12:24.655Z,79.34
2022-11-02T22:14:56.801Z,79.49
2022-11-02T22:17:48.475Z,79.49
2022-11-02T22:20:21.648Z,79.35
2022-11-02T22:22:52.096Z,79.62
2022-11-02T22:25:24.160Z,79.96
2022-11-02T22:27:54.747Z,80.12
2022-11-02T22:30:29.514Z,80.15
2022-11-02T22:33:01.505Z,79.89
2022-11-02T22:35:33.687Z,79.93
2022-11-02T22:38:23.436Z,79.89
2022-11-02T22:41:02.121Z,79.67
2022-11-02T22:43:34.132Z,79.74
2022-11-02T22:46:08.175Z,79.81
2022-11-02T22:48:40.370Z,79.52
2022-11-02T22:51:14.103Z,79.60
2022-11-02T22:53:46.232Z,79.66
2022-11-02T22:56:19.710Z,79.79
2022-11-02T22:58:52.313Z,80.01
2022-11-02T23:01:26.003Z,80.19
2022-11-02T23:03:58.665Z,80.15
2022-11-02T23:06:31.337Z,80.30
2022-11-02T23:09:03.699Z,80.55
2022-11-02T23:11:37.505Z,80.13
2022-11-02T23:14:11.218Z,80.11
2022-11-02T23:16:46.883Z,80.11
2022-11-02T23:19:30.910Z,80.07
2022-11-02T23:22:23.265Z,80.31
2022-11-02T23:25:17.090Z,79.89
2022-11-02T23:28:13.979Z,79.48
2022-11-02T23:31:04.123Z,79.66
2022-11-02T23:33:37.310Z,79.77
2022-11-02T23:36:15.818Z,80.13
2022-11-02T23:39:06.773Z,80.26
2022-11-02T23:41:39.579Z,80.33
2022-11-02T23:44:15.042Z,80.08
2022-11-02T23:46:48.986Z,80.31
2022-11-02T23:49:21.189Z,80.29
2022-11-02T23:52:11.184Z,80.52
2022-11-02T23:55:00.932Z,81.14
2022-11-02T23:57:33.377Z,80.61
